createdAt,value
2022-12-31T00:01:25.383Z,895.4
2022-12-31T00:03:09.080Z,891.9
2022-12-31T00:04:52.787Z,891
2022-12-31T00:06:36.499Z,891.6
2022-12-31T00:08:20.187Z,888
2022-12-31T00:10:03.887Z,886.7
2022-12-31T00:11:47.595Z,883.3
2022-12-31T00:13:31.296Z,884.4
2022-12-31T00:15:15.019Z,883.9
2022-12-31T00:16:58.694Z,883.4
2022-12-31T00:18:42.549Z,880.2
2022-12-31T00:20:26.137Z,878.5
2022-12-31T00:22:09.799Z,879.3
2022-12-31T00:23:53.588Z,879
2022-12-31T00:25:37.221Z,887
2022-12-31T00:27:20.910Z,913.7
2022-12-31T00:29:04.776Z,912.1
2022-12-31T00:30:48.318Z,917.7
2022-12-31T00:32:32.017Z,911
2022-12-31T00:34:15.738Z,901.3
2022-12-31T00:35:59.420Z,890.7
2022-12-31T00:37:43.136Z,884.3
2022-12-31T00:39:26.880Z,886.8
2022-12-31T00:41:10.525Z,884.6
2022-12-31T00:42:54.237Z,884
2022-12-31T00:44:38.004Z,881.5
2022-12-31T00:46:21.640Z,896.9
2022-12-31T00:48:05.346Z,901.6
2022-12-31T00:49:49.041Z,897.8
2022-12-31T00:51:32.752Z,894.7
2022-12-31T00:53:16.444Z,887.7
2022-12-31T00:55:00.162Z,884.9
2022-12-31T00:56:43.849Z,884.1
2022-12-31T00:58:27.558Z,880.1
2022-12-31T01:00:11.284Z,881
2022-12-31T01:01:54.989Z,883.6
2022-12-31T01:03:38.657Z,890.8
2022-12-31T01:05:22.387Z,895.1
2022-12-31T01:07:06.070Z,887.2
2022-12-31T01:08:49.776Z,886.7
2022-12-31T01:10:33.482Z,894.5
2022-12-31T01:12:17.180Z,910.1
2022-12-31T01:14:00.934Z,919.7
2022-12-31T01:15:44.584Z,923.9
2022-12-31T01:17:28.327Z,919.1
2022-12-31T01:19:11.996Z,905.6
2022-12-31T01:20:55.688Z,902.2
2022-12-31T01:22:39.413Z,900.7
2022-12-31T01:24:23.097Z,894.1
2022-12-31T01:26:06.825Z,890.9
2022-12-31T01:27:50.529Z,893.8
2022-12-31T01:29:34.206Z,893.3
2022-12-31T01:31:17.944Z,887.8
2022-12-31T01:33:01.612Z,883.4
2022-12-31T01:34:45.307Z,880.8
2022-12-31T01:36:29.018Z,879.8
2022-12-31T01:38:12.724Z,879.6
2022-12-31T01:39:56.409Z,874.9
2022-12-31T01:41:40.123Z,874.7
2022-12-31T01:43:23.829Z,877.3
2022-12-31T01:45:07.525Z,877.2
2022-12-31T01:46:51.239Z,877.5
2022-12-31T01:48:34.928Z,887.8
2022-12-31T01:50:18.633Z,899.9
2022-12-31T01:52:02.339Z,895
2022-12-31T01:53:46.035Z,888.5
2022-12-31T01:55:29.737Z,885
2022-12-31T01:57:13.440Z,882.1
2022-12-31T02:00:40.853Z,880.7
2022-12-31T02:02:24.546Z,872.8
2022-12-31T02:04:08.254Z,866.4
2022-12-31T02:05:51.962Z,867.7
2022-12-31T02:07:35.652Z,878.1
2022-12-31T02:09:19.362Z,891.1
2022-12-31T02:11:03.134Z,896.4
2022-12-31T02:12:46.766Z,887.4
2022-12-31T02:14:30.523Z,885.3
2022-12-31T02:16:14.170Z,879
2022-12-31T02:17:57.889Z,871.7
2022-12-31T02:19:41.574Z,868.1
2022-12-31T02:21:25.266Z,869.5
2022-12-31T02:23:08.976Z,874.6
2022-12-31T02:24:52.675Z,877.9
2022-12-31T02:26:36.383Z,871
2022-12-31T02:28:20.143Z,870.6
2022-12-31T02:30:03.782Z,871.4
2022-12-31T02:31:47.503Z,880.6
2022-12-31T02:33:31.207Z,896.8
2022-12-31T02:35:14.896Z,895.9
2022-12-31T02:36:58.602Z,891.2
2022-12-31T02:38:42.303Z,887.3
2022-12-31T02:40:26.007Z,887.6
2022-12-31T02:42:09.706Z,886.4
2022-12-31T02:43:53.411Z,885.1
2022-12-31T02:45:37.117Z,882
2022-12-31T02:49:04.520Z,886
2022-12-31T02:50:48.225Z,895
2022-12-31T02:52:31.923Z,904.6
2022-12-31T02:54:15.627Z,903.1
2022-12-31T02:55:59.352Z,906.4
2022-12-31T02:57:43.033Z,894
2022-12-31T02:59:26.735Z,875
2022-12-31T03:01:10.442Z,881.1
2022-12-31T03:02:54.151Z,880.7
2022-12-31T03:04:37.841Z,883.6
2022-12-31T03:06:21.564Z,883.2
2022-12-31T03:08:05.258Z,885.1
2022-12-31T03:09:48.950Z,887.3
2022-12-31T03:11:32.660Z,887
2022-12-31T03:13:16.358Z,886.4
2022-12-31T03:15:00.091Z,888.6
2022-12-31T03:16:43.769Z,888.5
2022-12-31T03:18:27.467Z,885.8
2022-12-31T03:20:11.168Z,885.5
2022-12-31T03:21:54.873Z,887.7
2022-12-31T03:23:38.590Z,884.5
2022-12-31T03:25:22.278Z,884.3
2022-12-31T03:27:05.995Z,886.9
2022-12-31T03:28:49.720Z,883.9
2022-12-31T03:30:33.395Z,884.8
2022-12-31T03:32:17.098Z,882.4
2022-12-31T03:34:00.792Z,879.6
2022-12-31T03:35:44.497Z,875.8
2022-12-31T03:37:28.217Z,874.3
2022-12-31T03:39:11.901Z,871.1
2022-12-31T03:40:55.609Z,869.6
2022-12-31T03:42:39.316Z,875.4
2022-12-31T03:44:23.016Z,876.3
2022-12-31T03:46:06.722Z,879.3
2022-12-31T03:47:50.423Z,878.5
2022-12-31T03:49:34.119Z,876.1
2022-12-31T03:51:17.826Z,875.2
2022-12-31T03:53:01.526Z,874.3
2022-12-31T03:54:45.236Z,871.9
2022-12-31T03:56:28.937Z,868.3
2022-12-31T03:58:12.660Z,866.4
2022-12-31T03:59:56.351Z,868
2022-12-31T04:01:40.041Z,870.7
2022-12-31T04:03:23.752Z,873.4
2022-12-31T04:05:07.453Z,873
2022-12-31T04:06:51.168Z,869.6
2022-12-31T04:08:34.869Z,870.2
2022-12-31T04:10:18.572Z,865.6
2022-12-31T04:12:02.262Z,863.2
2022-12-31T04:13:45.963Z,866.2
2022-12-31T04:15:29.689Z,868
2022-12-31T04:17:13.373Z,869.3
2022-12-31T04:18:57.162Z,864.2
2022-12-31T04:20:40.786Z,863.3
2022-12-31T04:22:24.481Z,862
2022-12-31T04:24:08.191Z,864.1
2022-12-31T04:25:51.944Z,868
2022-12-31T04:27:35.593Z,866.9
2022-12-31T04:29:19.292Z,863
2022-12-31T04:31:02.998Z,862.8
2022-12-31T04:32:46.703Z,859.4
2022-12-31T04:34:30.427Z,854.5
2022-12-31T04:36:14.132Z,851.7
2022-12-31T04:37:57.815Z,852
2022-12-31T04:39:41.514Z,852.3
2022-12-31T04:41:25.217Z,854
2022-12-31T04:43:08.923Z,854.7
2022-12-31T04:44:52.612Z,854.1
2022-12-31T04:46:36.324Z,855.5
2022-12-31T04:48:20.014Z,854.5
2022-12-31T04:50:03.711Z,854.9
2022-12-31T04:51:47.433Z,856.2
2022-12-31T04:53:31.143Z,857.5
2022-12-31T04:55:14.894Z,856.4
2022-12-31T04:56:58.580Z,856.2
2022-12-31T04:58:42.236Z,854.3
2022-12-31T05:00:25.977Z,854.8
2022-12-31T05:02:09.642Z,854.1
2022-12-31T05:03:53.342Z,850.8
2022-12-31T05:05:37.169Z,849.1
2022-12-31T05:07:20.757Z,846.8
2022-12-31T05:09:04.475Z,848.1
2022-12-31T05:10:48.164Z,847.6
2022-12-31T05:12:31.859Z,845.2
2022-12-31T05:14:15.570Z,841.1
2022-12-31T05:15:59.276Z,846
2022-12-31T05:17:42.980Z,844.1
2022-12-31T05:19:26.671Z,835.8
2022-12-31T05:21:10.388Z,875.7
2022-12-31T05:22:54.077Z,925.5
2022-12-31T05:24:37.780Z,929.6
2022-12-31T05:26:21.484Z,924.9
2022-12-31T05:28:05.185Z,916.9
2022-12-31T05:29:48.886Z,898.5
2022-12-31T05:31:32.591Z,883.1
2022-12-31T05:33:16.287Z,881.6
2022-12-31T05:34:59.993Z,878
2022-12-31T05:36:43.697Z,878.7
2022-12-31T05:38:27.401Z,880.3
2022-12-31T05:40:11.123Z,881.1
2022-12-31T05:41:54.827Z,880.1
2022-12-31T05:43:38.505Z,882.5
2022-12-31T05:45:22.213Z,879.9
2022-12-31T05:47:05.909Z,876.3
2022-12-31T05:48:49.619Z,875.2
2022-12-31T05:50:33.327Z,878.6
2022-12-31T05:52:17.016Z,880.5
2022-12-31T05:54:00.735Z,879
2022-12-31T05:55:44.429Z,875.1
2022-12-31T05:57:28.124Z,870.4
2022-12-31T05:59:11.833Z,865.8
2022-12-31T06:00:55.522Z,869.5
2022-12-31T06:02:39.231Z,867.4
2022-12-31T06:04:22.936Z,870
2022-12-31T06:06:06.631Z,870.2
2022-12-31T06:07:50.339Z,867.9
2022-12-31T06:09:34.043Z,866.4
2022-12-31T06:11:17.781Z,865.5
2022-12-31T06:13:01.446Z,867.5
2022-12-31T06:14:45.135Z,866.2
2022-12-31T06:16:28.851Z,867.5
2022-12-31T06:18:12.547Z,864.5
2022-12-31T06:19:56.254Z,868
2022-12-31T06:21:39.966Z,867.9
2022-12-31T06:23:23.659Z,867.1
2022-12-31T06:25:07.390Z,870.1
2022-12-31T06:26:51.068Z,867.9
2022-12-31T06:28:34.757Z,866.7
2022-12-31T06:30:18.477Z,866.9
2022-12-31T06:32:02.219Z,867.9
2022-12-31T06:33:45.867Z,865.5
2022-12-31T06:35:29.646Z,865.4
2022-12-31T06:37:13.275Z,865.3
2022-12-31T06:38:56.977Z,864.5
2022-12-31T06:40:40.680Z,865.5
2022-12-31T06:42:24.381Z,866.2
2022-12-31T06:44:08.085Z,864
2022-12-31T06:45:51.820Z,861.3
2022-12-31T06:47:35.595Z,860.2
2022-12-31T06:49:19.195Z,864.7
2022-12-31T06:51:02.939Z,864.2
2022-12-31T06:52:46.608Z,859.5
2022-12-31T06:54:30.299Z,858.4
2022-12-31T06:56:13.996Z,860.9
2022-12-31T06:57:57.711Z,860.8
2022-12-31T06:59:41.464Z,857.9
2022-12-31T07:01:25.106Z,857.1
2022-12-31T07:03:08.817Z,853.6
2022-12-31T07:04:52.546Z,852.3
2022-12-31T07:06:36.217Z,853.9
2022-12-31T07:08:19.921Z,855.6
2022-12-31T07:10:03.694Z,852.1
2022-12-31T07:11:47.331Z,850
2022-12-31T07:13:31.033Z,847.8
2022-12-31T07:15:14.808Z,850
2022-12-31T07:16:58.430Z,849.3
2022-12-31T07:18:42.141Z,852.1
2022-12-31T07:20:25.925Z,849.4
2022-12-31T07:22:09.542Z,842.9
2022-12-31T07:23:53.248Z,842.2
2022-12-31T07:25:36.944Z,836.5
2022-12-31T07:27:20.651Z,838.9
2022-12-31T07:29:04.351Z,842.2
2022-12-31T07:30:48.059Z,843.1
2022-12-31T07:32:31.770Z,844.4
2022-12-31T07:34:15.458Z,842.2
2022-12-31T07:35:59.167Z,840.5
2022-12-31T07:37:42.877Z,843.3
2022-12-31T07:39:26.609Z,840.5
2022-12-31T07:41:10.279Z,839
2022-12-31T07:42:53.965Z,841.8
2022-12-31T07:44:37.676Z,840
2022-12-31T07:46:21.377Z,839.5
2022-12-31T07:48:05.072Z,840.7
2022-12-31T07:49:48.800Z,841.2
2022-12-31T07:51:32.487Z,841.2
2022-12-31T07:53:16.224Z,838.2
2022-12-31T07:55:00.051Z,832.8
2022-12-31T07:56:43.614Z,833.8
2022-12-31T07:58:27.415Z,831.3
2022-12-31T08:00:11.013Z,833.1
2022-12-31T08:01:54.745Z,834.1
2022-12-31T08:03:38.465Z,833.1
2022-12-31T08:05:22.115Z,833.1
2022-12-31T08:07:05.927Z,835.4
2022-12-31T08:08:49.574Z,835.9
2022-12-31T08:10:33.326Z,832.3
2022-12-31T08:12:16.955Z,827.1
2022-12-31T08:14:00.622Z,823.3
2022-12-31T08:15:44.323Z,822.3
2022-12-31T08:17:28.025Z,821.3
2022-12-31T08:19:11.734Z,824.3
2022-12-31T08:20:55.428Z,830.5
2022-12-31T08:22:39.215Z,833.2
2022-12-31T08:24:22.847Z,833.1
2022-12-31T08:26:06.534Z,836
2022-12-31T08:27:50.267Z,838.8
2022-12-31T08:29:33.945Z,835.4
2022-12-31T08:31:17.645Z,836.1
2022-12-31T08:33:01.350Z,838.4
2022-12-31T08:34:45.052Z,835.1
2022-12-31T08:36:28.752Z,830.6
2022-12-31T08:38:12.483Z,829.2
2022-12-31T08:39:56.158Z,827.6
2022-12-31T08:41:39.858Z,828.9
2022-12-31T08:43:23.578Z,830.3
2022-12-31T08:45:07.288Z,832.6
2022-12-31T08:46:50.970Z,834
2022-12-31T08:48:34.685Z,831.2
2022-12-31T08:50:18.376Z,833.7
2022-12-31T08:52:02.079Z,834.2
2022-12-31T08:53:45.787Z,836
2022-12-31T08:55:29.588Z,838.3
2022-12-31T08:57:13.292Z,838.2
2022-12-31T08:58:56.896Z,840.4
2022-12-31T09:00:40.588Z,840.6
2022-12-31T09:02:24.289Z,838.6
2022-12-31T09:04:07.991Z,838.7
2022-12-31T09:05:51.711Z,839.4
2022-12-31T09:07:35.406Z,836.2
2022-12-31T09:09:19.117Z,835.1
2022-12-31T09:11:02.843Z,832.6
2022-12-31T09:12:46.501Z,828.5
2022-12-31T09:14:30.235Z,826
2022-12-31T09:16:13.913Z,828.4
2022-12-31T09:17:57.685Z,833.3
2022-12-31T09:19:41.322Z,832.4
2022-12-31T09:21:25.066Z,830.6
2022-12-31T09:23:08.725Z,830.8
2022-12-31T09:24:52.428Z,832.6
2022-12-31T09:26:36.127Z,828.8
2022-12-31T09:28:19.852Z,825.9
2022-12-31T09:30:03.534Z,825.2
2022-12-31T09:31:47.229Z,827.1
2022-12-31T09:33:30.944Z,827.8
2022-12-31T09:35:14.681Z,827.4
2022-12-31T09:36:58.380Z,829.7
2022-12-31T09:38:42.056Z,831.7
2022-12-31T09:40:25.748Z,831.3
2022-12-31T09:42:09.493Z,830.8
2022-12-31T09:43:53.158Z,830.1
2022-12-31T09:45:36.857Z,828.9
2022-12-31T09:47:20.561Z,826.8
2022-12-31T09:49:04.264Z,826.8
2022-12-31T09:50:47.966Z,827.1
2022-12-31T09:52:31.681Z,828.3
2022-12-31T09:54:15.368Z,830.1
2022-12-31T09:55:59.115Z,830.8
2022-12-31T09:57:42.912Z,834.1
2022-12-31T09:59:26.490Z,837.5
2022-12-31T10:01:10.190Z,837.8
2022-12-31T10:02:53.900Z,836.6
2022-12-31T10:04:37.604Z,837.8
2022-12-31T10:06:21.294Z,838.3
2022-12-31T10:08:05.000Z,839.6
2022-12-31T10:09:48.697Z,841.7
2022-12-31T10:11:32.413Z,931.5
2022-12-31T10:13:16.116Z,923.3
2022-12-31T10:14:59.814Z,944
2022-12-31T10:16:43.509Z,986.7
2022-12-31T10:18:27.265Z,980.3
2022-12-31T10:20:10.918Z,967.6
2022-12-31T10:21:54.620Z,958.5
2022-12-31T10:23:38.320Z,948.4
2022-12-31T10:25:22.081Z,939.9
2022-12-31T10:27:05.746Z,933.5
2022-12-31T10:28:49.496Z,928
2022-12-31T10:30:33.131Z,925.3
2022-12-31T10:32:16.853Z,924
2022-12-31T10:34:00.539Z,923.7
2022-12-31T10:35:44.263Z,922
2022-12-31T10:37:27.971Z,916.3
2022-12-31T10:39:11.714Z,914.6
2022-12-31T10:40:55.477Z,916.1
2022-12-31T10:42:39.098Z,919.7
2022-12-31T10:44:22.778Z,920.6
2022-12-31T10:46:06.478Z,920.6
2022-12-31T10:47:50.155Z,923.2
2022-12-31T10:49:33.865Z,922.9
2022-12-31T10:51:17.618Z,925.3
2022-12-31T10:53:01.287Z,923.5
2022-12-31T10:54:44.972Z,921.2
2022-12-31T10:56:28.673Z,921.4
2022-12-31T10:58:12.370Z,918.9
2022-12-31T10:59:56.073Z,915.7
2022-12-31T11:01:39.887Z,917
2022-12-31T11:03:23.589Z,918.8
2022-12-31T11:05:07.251Z,916
2022-12-31T11:06:50.921Z,914.4
2022-12-31T11:08:34.596Z,911.8
2022-12-31T11:10:18.280Z,909.6
2022-12-31T11:12:01.995Z,910.6
2022-12-31T11:13:45.738Z,911
2022-12-31T11:15:29.452Z,909.7
2022-12-31T11:17:13.107Z,908.9
2022-12-31T11:18:56.813Z,908.6
2022-12-31T11:20:40.512Z,907.7
2022-12-31T11:22:24.216Z,909.1
2022-12-31T11:24:07.906Z,907.2
2022-12-31T11:25:51.641Z,905.4
2022-12-31T11:27:35.388Z,908.7
2022-12-31T11:29:19.065Z,923.6
2022-12-31T11:31:02.727Z,936.5
2022-12-31T11:32:46.437Z,939.8
2022-12-31T11:34:30.182Z,945.3
2022-12-31T11:36:13.861Z,946.1
2022-12-31T11:37:57.616Z,950.1
2022-12-31T11:39:41.260Z,944.6
2022-12-31T11:41:25.021Z,941.6
2022-12-31T11:43:08.650Z,942.2
2022-12-31T11:44:52.382Z,941.6
2022-12-31T11:46:36.148Z,941.3
2022-12-31T11:48:19.758Z,942
2022-12-31T11:50:03.498Z,940.5
2022-12-31T11:51:47.182Z,938.5
2022-12-31T11:53:30.919Z,936.6
2022-12-31T11:55:14.625Z,937
2022-12-31T11:56:58.265Z,938.1
2022-12-31T11:58:41.971Z,938.8
2022-12-31T12:00:25.698Z,937.1
2022-12-31T12:02:09.382Z,935.8
2022-12-31T12:03:53.088Z,933.2
2022-12-31T12:05:36.795Z,932.5
2022-12-31T12:07:20.508Z,929.6
2022-12-31T12:09:04.208Z,926
2022-12-31T12:10:47.904Z,928.7
2022-12-31T12:12:31.656Z,925.5
2022-12-31T12:14:15.304Z,921.4
2022-12-31T12:15:59.051Z,923.4
2022-12-31T12:17:42.703Z,929.2
2022-12-31T12:19:26.412Z,930.4
2022-12-31T12:21:10.107Z,932.6
2022-12-31T12:22:53.823Z,936.3
2022-12-31T12:24:37.584Z,935.2
2022-12-31T12:26:21.223Z,940.3
2022-12-31T12:28:04.927Z,938.7
2022-12-31T12:29:48.626Z,864.7
2022-12-31T12:31:32.350Z,624.1
2022-12-31T12:33:16.034Z,470.5
2022-12-31T12:34:59.776Z,448
2022-12-31T12:36:43.444Z,450.5
2022-12-31T12:38:27.159Z,467.3
2022-12-31T12:40:10.981Z,504
2022-12-31T12:41:54.547Z,512.2
2022-12-31T12:43:38.257Z,512
2022-12-31T12:45:21.962Z,520.2
2022-12-31T12:47:05.769Z,526.1
2022-12-31T12:48:49.360Z,531.6
2022-12-31T12:50:33.067Z,530.1
2022-12-31T12:52:16.780Z,530.6
2022-12-31T12:54:00.480Z,532.8
2022-12-31T12:55:44.171Z,533.4
2022-12-31T12:57:27.876Z,536.9
2022-12-31T12:59:11.611Z,538.8
2022-12-31T13:00:55.340Z,537.5
2022-12-31T13:02:38.993Z,537.6
2022-12-31T13:04:22.680Z,537.9
2022-12-31T13:06:06.382Z,539.4
2022-12-31T13:07:50.093Z,538.8
2022-12-31T13:09:33.812Z,539.3
2022-12-31T13:11:17.496Z,541.9
2022-12-31T13:13:01.194Z,542.2
2022-12-31T13:14:44.920Z,542.2
2022-12-31T13:16:28.610Z,543.7
2022-12-31T13:18:12.383Z,546.5
2022-12-31T13:19:56.059Z,548.5
2022-12-31T13:21:39.712Z,549.5
2022-12-31T13:23:23.410Z,547.9
2022-12-31T13:25:07.138Z,544.7
2022-12-31T13:26:50.824Z,542.1
2022-12-31T13:28:34.543Z,546.1
2022-12-31T13:30:18.282Z,547.7
2022-12-31T13:32:01.929Z,544.7
2022-12-31T13:33:45.677Z,545.3
2022-12-31T13:35:29.497Z,548.2
2022-12-31T13:37:13.115Z,546.9
2022-12-31T13:38:56.741Z,545.7
2022-12-31T13:40:40.440Z,543.9
2022-12-31T13:42:24.143Z,548.6
2022-12-31T13:44:07.838Z,549.3
2022-12-31T13:45:51.606Z,545
2022-12-31T13:47:35.248Z,546.3
2022-12-31T13:49:19.081Z,547.4
2022-12-31T13:51:02.652Z,548.1
2022-12-31T13:52:46.452Z,549
2022-12-31T13:54:30.062Z,550.8
2022-12-31T13:56:13.771Z,551.6
2022-12-31T13:57:57.535Z,553.8
2022-12-31T13:59:41.171Z,551.3
2022-12-31T14:01:24.878Z,551.7
2022-12-31T14:03:08.570Z,552.1
2022-12-31T14:04:52.278Z,552.2
2022-12-31T14:06:35.980Z,552.9
2022-12-31T14:08:19.675Z,555.9
2022-12-31T14:10:03.395Z,553.5
2022-12-31T14:11:47.076Z,555.1
2022-12-31T14:13:30.786Z,554
2022-12-31T14:15:14.494Z,555.1
2022-12-31T14:16:58.239Z,556
2022-12-31T14:18:41.902Z,558.4
2022-12-31T14:20:25.595Z,562.8
2022-12-31T14:22:09.323Z,560
2022-12-31T14:23:52.999Z,561.4
2022-12-31T14:25:36.695Z,566.2
2022-12-31T14:27:20.406Z,567.6
2022-12-31T14:29:04.110Z,569.8
2022-12-31T14:30:47.810Z,572.2
2022-12-31T14:32:31.511Z,573.4
2022-12-31T14:34:15.222Z,571.1
2022-12-31T14:35:58.917Z,569.2
2022-12-31T14:37:42.613Z,567.1
2022-12-31T14:39:26.328Z,565.2
2022-12-31T14:41:10.023Z,566.2
2022-12-31T14:42:53.747Z,565.1
2022-12-31T14:44:37.431Z,565.9
2022-12-31T14:46:21.130Z,562.6
2022-12-31T14:48:04.837Z,562.1
2022-12-31T14:49:48.531Z,560.4
2022-12-31T14:53:15.967Z,564.8
2022-12-31T14:54:59.748Z,566.8
2022-12-31T14:56:43.440Z,571.6
2022-12-31T14:58:27.055Z,575.1
2022-12-31T15:01:54.471Z,573.9
2022-12-31T15:03:38.267Z,572.8
2022-12-31T15:05:21.861Z,627.6
2022-12-31T15:07:05.598Z,673.4
2022-12-31T15:08:49.260Z,670.2
2022-12-31T15:10:32.997Z,664.7
2022-12-31T15:12:16.743Z,659.8
2022-12-31T15:14:00.441Z,658.6
2022-12-31T15:15:44.116Z,657.4
2022-12-31T15:17:27.824Z,654.2
2022-12-31T15:19:12.088Z,648.8
2022-12-31T15:20:55.194Z,648.6
2022-12-31T15:22:38.908Z,649
2022-12-31T15:24:22.621Z,645.8
2022-12-31T15:26:06.317Z,642.6
2022-12-31T15:27:50.050Z,642.4
2022-12-31T15:29:33.708Z,644.2
2022-12-31T15:31:17.403Z,641
2022-12-31T15:33:01.129Z,639.5
2022-12-31T15:34:44.847Z,640.4
2022-12-31T15:36:28.547Z,640.1
2022-12-31T15:38:12.230Z,639.3
2022-12-31T15:39:56.005Z,637.7
2022-12-31T15:41:39.638Z,638.6
2022-12-31T15:43:23.446Z,637.7
2022-12-31T15:45:07.046Z,646.6
2022-12-31T15:46:50.732Z,684.8
2022-12-31T15:48:34.442Z,695
2022-12-31T15:50:18.149Z,692.6
2022-12-31T15:52:01.840Z,685.4
2022-12-31T15:53:45.549Z,679.7
2022-12-31T15:55:29.249Z,681
2022-12-31T15:57:12.972Z,682.2
2022-12-31T15:58:56.645Z,686.2
2022-12-31T16:00:40.372Z,690.5
2022-12-31T16:02:24.088Z,694.6
2022-12-31T16:04:07.755Z,762.8
2022-12-31T16:05:51.621Z,895.5
2022-12-31T16:07:35.176Z,800.4
2022-12-31T16:09:18.924Z,755.1
2022-12-31T16:11:02.588Z,748.7
2022-12-31T16:12:46.271Z,741.6
2022-12-31T16:14:30.060Z,741.1
2022-12-31T16:16:13.693Z,742.3
2022-12-31T16:17:57.371Z,737.7
2022-12-31T16:19:41.083Z,732.4
2022-12-31T16:21:24.822Z,730.9
2022-12-31T16:23:08.479Z,731.3
2022-12-31T16:24:52.252Z,730.6
2022-12-31T16:26:35.889Z,728.5
2022-12-31T16:28:19.605Z,726.6
2022-12-31T16:30:03.297Z,724.7
2022-12-31T16:31:46.990Z,724.1
2022-12-31T16:33:30.797Z,721.9
2022-12-31T16:35:14.415Z,719.3
2022-12-31T16:36:58.098Z,721.4
2022-12-31T16:38:41.834Z,718.9
2022-12-31T16:40:25.509Z,711.7
2022-12-31T16:42:09.219Z,704.1
2022-12-31T16:43:53.024Z,703
2022-12-31T16:45:36.621Z,706.2
2022-12-31T16:47:20.337Z,711.9
2022-12-31T16:49:04.082Z,711.1
2022-12-31T16:50:47.727Z,709.9
2022-12-31T16:52:31.431Z,709.8
2022-12-31T16:54:15.136Z,710.2
2022-12-31T16:55:58.837Z,710.2
2022-12-31T16:57:42.541Z,706.6
2022-12-31T16:59:26.234Z,703.6
2022-12-31T17:01:09.941Z,703.1
2022-12-31T17:02:53.652Z,702.3
2022-12-31T17:04:37.353Z,703
2022-12-31T17:06:21.067Z,701
2022-12-31T17:08:04.752Z,703
2022-12-31T17:09:48.525Z,703.3
2022-12-31T17:11:32.175Z,707
2022-12-31T17:13:15.854Z,705.3
2022-12-31T17:14:59.561Z,703.7
2022-12-31T17:16:43.393Z,702
2022-12-31T17:18:27.002Z,702.5
2022-12-31T17:20:10.809Z,698.7
2022-12-31T17:21:54.378Z,697.6
2022-12-31T17:23:38.237Z,697.4
2022-12-31T17:25:21.814Z,696.8
2022-12-31T17:27:05.478Z,688.2
2022-12-31T17:28:49.272Z,688.9
2022-12-31T17:30:32.891Z,690.8
2022-12-31T17:32:16.619Z,691.2
2022-12-31T17:34:00.286Z,694
2022-12-31T17:35:44.080Z,690.5
2022-12-31T17:37:27.800Z,691.8
2022-12-31T17:39:11.509Z,690.7
2022-12-31T17:40:55.099Z,690.9
2022-12-31T17:42:38.875Z,690.3
2022-12-31T17:44:22.520Z,691
2022-12-31T17:46:06.209Z,692.7
2022-12-31T17:47:49.988Z,691.5
2022-12-31T17:49:33.771Z,691.1
2022-12-31T17:51:17.457Z,692.2
2022-12-31T17:53:01.083Z,694.5
2022-12-31T17:54:44.712Z,696.6
2022-12-31T17:56:28.512Z,692.8
2022-12-31T17:58:12.216Z,687.7
2022-12-31T17:59:55.823Z,686.5
2022-12-31T18:01:39.530Z,688.2
2022-12-31T18:03:23.278Z,698.2
2022-12-31T18:05:06.964Z,928.2
2022-12-31T18:06:50.742Z,906.3
2022-12-31T18:08:34.338Z,913.4
2022-12-31T18:10:18.132Z,815.5
2022-12-31T18:12:01.796Z,783
2022-12-31T18:13:45.483Z,788.4
2022-12-31T18:15:29.212Z,792.2
2022-12-31T18:17:12.851Z,796.1
2022-12-31T18:18:56.549Z,795.4
2022-12-31T18:20:40.304Z,790.6
2022-12-31T18:22:23.954Z,785.7
2022-12-31T18:24:07.667Z,781.7
2022-12-31T18:25:51.534Z,776.7
2022-12-31T18:27:35.143Z,774.6
2022-12-31T18:29:18.848Z,774.7
2022-12-31T18:31:02.526Z,772.7
2022-12-31T18:32:46.210Z,770
2022-12-31T18:34:29.971Z,769.6
2022-12-31T18:36:13.647Z,768.9
2022-12-31T18:37:57.272Z,768
2022-12-31T18:39:40.994Z,770.2
2022-12-31T18:41:24.698Z,769.9
2022-12-31T18:43:08.392Z,770.1
2022-12-31T18:44:52.139Z,765.1
2022-12-31T18:46:35.918Z,762.2
2022-12-31T18:48:19.502Z,760.3
2022-12-31T18:50:03.189Z,761.7
2022-12-31T18:51:46.906Z,762.4
2022-12-31T18:53:30.610Z,761.1
2022-12-31T18:55:14.320Z,759.1
2022-12-31T18:56:58.030Z,758.5
2022-12-31T18:58:41.722Z,755.7
2022-12-31T19:00:25.421Z,750.8
2022-12-31T19:02:09.156Z,750.9
2022-12-31T19:03:52.824Z,750.2
2022-12-31T19:05:36.568Z,753.2
2022-12-31T19:07:20.232Z,754.6
2022-12-31T19:09:03.927Z,754.1
2022-12-31T19:10:47.632Z,751.6
2022-12-31T19:12:31.369Z,746.5
2022-12-31T19:14:15.067Z,745.9
2022-12-31T19:15:58.904Z,747.4
2022-12-31T19:17:42.501Z,746.8
2022-12-31T19:19:26.149Z,745.7
2022-12-31T19:21:09.864Z,746.3
2022-12-31T19:22:53.554Z,782.7
2022-12-31T19:24:37.322Z,954
2022-12-31T19:26:21.015Z,955.2
2022-12-31T19:28:04.649Z,937.9
2022-12-31T19:29:48.380Z,859.1
2022-12-31T19:31:32.070Z,842.4
2022-12-31T19:33:15.850Z,842.3
2022-12-31T19:34:59.494Z,838.1
2022-12-31T19:36:43.217Z,837.4
2022-12-31T19:38:26.934Z,838.3
2022-12-31T19:40:10.616Z,838.8
2022-12-31T19:41:54.367Z,834
2022-12-31T19:43:38.082Z,837.2
2022-12-31T19:45:21.787Z,834.2
2022-12-31T19:47:05.428Z,829.1
2022-12-31T19:48:49.167Z,822.5
2022-12-31T19:50:32.805Z,819.2
2022-12-31T19:52:16.558Z,816.8
2022-12-31T19:54:00.294Z,815.8
2022-12-31T19:55:43.910Z,813.6
2022-12-31T19:57:27.757Z,812.6
2022-12-31T19:59:11.376Z,810.5
2022-12-31T20:00:55.065Z,809.6
2022-12-31T20:02:38.796Z,807.2
2022-12-31T20:04:22.508Z,804.7
2022-12-31T20:06:06.123Z,803.6
2022-12-31T20:07:49.875Z,803.1
2022-12-31T20:09:33.594Z,802.4
2022-12-31T20:11:17.275Z,798.8
2022-12-31T20:13:01.081Z,795.3
2022-12-31T20:14:44.754Z,793.1
2022-12-31T20:16:28.416Z,796.7
2022-12-31T20:18:12.047Z,800.9
2022-12-31T20:19:55.749Z,799.2
2022-12-31T20:21:39.455Z,796.9
2022-12-31T20:23:23.157Z,796.2
2022-12-31T20:25:06.867Z,797.3
2022-12-31T20:26:50.634Z,796.7
2022-12-31T20:28:34.365Z,786.5
2022-12-31T20:30:18.020Z,786.4
2022-12-31T20:32:01.718Z,786.8
2022-12-31T20:33:45.501Z,787.4
2022-12-31T20:35:29.149Z,788
2022-12-31T20:37:12.825Z,789.1
2022-12-31T20:38:56.482Z,789.2
2022-12-31T20:40:40.263Z,790.9
2022-12-31T20:42:23.891Z,790.2
2022-12-31T20:44:07.590Z,786.6
2022-12-31T20:45:51.298Z,781.7
2022-12-31T20:47:35.007Z,777.7
2022-12-31T20:49:18.699Z,775.2
2022-12-31T20:51:02.419Z,771.4
2022-12-31T20:52:46.111Z,772.3
2022-12-31T20:54:29.972Z,770.9
2022-12-31T20:56:13.710Z,769.2
2022-12-31T20:57:57.329Z,767.8
2022-12-31T20:59:41.093Z,766.2
2022-12-31T21:01:24.638Z,763
2022-12-31T21:03:08.315Z,759.8
2022-12-31T21:04:52.027Z,762.2
2022-12-31T21:06:35.790Z,762.9
2022-12-31T21:08:19.427Z,760
2022-12-31T21:10:03.148Z,763.4
2022-12-31T21:11:46.832Z,762.8
2022-12-31T21:13:30.538Z,762.5
2022-12-31T21:15:14.232Z,760.3
2022-12-31T21:16:57.955Z,758.4
2022-12-31T21:18:41.640Z,755.8
2022-12-31T21:20:25.354Z,754.5
2022-12-31T21:22:09.051Z,751.8
2022-12-31T21:23:52.754Z,752.5
2022-12-31T21:25:36.476Z,750.6
2022-12-31T21:27:20.160Z,751.4
2022-12-31T21:29:03.962Z,751.4
2022-12-31T21:30:47.565Z,750
2022-12-31T21:32:31.323Z,749.2
2022-12-31T21:34:14.962Z,747.8
2022-12-31T21:35:58.689Z,749.2
2022-12-31T21:37:42.377Z,747.7
2022-12-31T21:39:26.132Z,747.4
2022-12-31T21:41:09.898Z,746.9
2022-12-31T21:42:53.477Z,816.6
2022-12-31T21:44:37.288Z,936
2022-12-31T21:46:20.885Z,850.8
2022-12-31T21:48:04.583Z,822.1
2022-12-31T21:49:48.291Z,813.5
2022-12-31T21:51:31.996Z,809.9
2022-12-31T21:53:15.702Z,806.3
2022-12-31T21:54:59.399Z,803.1
2022-12-31T21:56:43.152Z,803.6
2022-12-31T21:58:26.851Z,801.8
2022-12-31T22:00:10.504Z,798.5
2022-12-31T22:01:54.209Z,796.3
2022-12-31T22:03:37.970Z,795.7
2022-12-31T22:05:21.660Z,795.3
2022-12-31T22:07:05.317Z,792
2022-12-31T22:08:49.026Z,794.3
2022-12-31T22:10:32.729Z,791.5
2022-12-31T22:12:16.553Z,789.7
2022-12-31T22:14:00.244Z,787.5
2022-12-31T22:15:43.831Z,791.5
2022-12-31T22:17:27.643Z,786
2022-12-31T22:19:11.375Z,782.5
2022-12-31T22:20:54.941Z,778.8
2022-12-31T22:22:38.652Z,776.4
2022-12-31T22:24:22.420Z,777.9
2022-12-31T22:26:06.049Z,778.6
2022-12-31T22:27:49.815Z,781.3
2022-12-31T22:29:33.462Z,779
2022-12-31T22:31:17.166Z,777.8